Time;durP1;ratioP1;P1;durP2;ratioP2;P2;SDS_P1;SDS_P2;PMS_P1;PMS_P2;Temp;Humidity;BMP_temperature;BMP_pressure;BME280_temperature;BME280_humidity;BME280_pressure;Samples;Min_cycle;Max_cycle;Signal;HPM_P1;HPM_P2
2023/07/21 00:00:38;;;;;;;5.70;2.50;;;15.20;99.90;;;;;;4132116;28;20073;-80
2023/07/21 00:02:38;;;;;;;5.30;2.20;;;15.30;99.90;;;;;;4132013;28;20061;-80
2023/07/21 00:04:39;;;;;;;5.65;2.40;;;15.30;99.90;;;;;;4131703;28;20050;-80
2023/07/21 00:06:44;;;;;;;5.00;1.73;;;15.30;99.90;;;;;;4132192;28;20046;-80
2023/07/21 00:08:45;;;;;;;3.25;1.60;;;15.30;99.90;;;;;;4132735;28;20042;-80
2023/07/21 00:10:46;;;;;;;7.18;2.00;;;15.50;99.90;;;;;;4131347;28;20096;-80
2023/07/21 00:12:48;;;;;;;3.75;2.00;;;15.30;99.90;;;;;;4131043;28;20061;-80
2023/07/21 00:14:48;;;;;;;3.70;2.00;;;15.30;99.90;;;;;;4132101;28;20050;-80
2023/07/21 00:16:53;;;;;;;3.78;2.17;;;15.30;99.90;;;;;;4147472;28;20096;-80
2023/07/21 00:18:53;;;;;;;4.55;2.00;;;15.30;99.90;;;;;;4132864;28;20046;-80
2023/07/21 00:20:54;;;;;;;5.45;2.35;;;15.30;99.90;;;;;;4132659;28;20042;-80
2023/07/21 00:22:55;;;;;;;4.53;1.98;;;15.30;99.90;;;;;;4132377;28;20046;-80
2023/07/21 00:24:55;;;;;;;4.07;1.92;;;15.20;99.90;;;;;;4132441;28;20052;-80
2023/07/21 00:26:56;;;;;;;3.42;2.10;;;15.30;99.90;;;;;;4132018;28;20524;-80
2023/07/21 00:28:57;;;;;;;4.25;2.25;;;15.10;99.90;;;;;;4132391;28;20100;-80
2023/07/21 00:30:57;;;;;;;5.45;2.33;;;15.30;99.90;;;;;;4132546;28;20043;-80
2023/07/21 00:32:59;;;;;;;4.55;2.35;;;15.10;99.90;;;;;;4131822;28;20164;-80
2023/07/21 00:34:59;;;;;;;2.58;1.73;;;15.00;99.90;;;;;;4130637;28;20112;-80
2023/07/21 00:37:00;;;;;;;5.57;2.10;;;15.00;99.90;;;;;;4132325;28;20093;-80
2023/07/21 00:39:00;;;;;;;4.05;2.05;;;15.10;99.90;;;;;;4130423;28;20045;-80
2023/07/21 00:41:01;;;;;;;5.32;2.92;;;14.90;99.90;;;;;;4132325;28;20536;-80
2023/07/21 00:43:08;;;;;;;5.20;2.03;;;15.00;99.90;;;;;;4132241;28;20117;-80
2023/07/21 00:45:09;;;;;;;3.72;2.05;;;14.80;99.90;;;;;;4132190;28;20112;-80
2023/07/21 00:47:10;;;;;;;5.45;2.22;;;14.80;99.90;;;;;;4131742;28;20046;-80
2023/07/21 00:49:11;;;;;;;4.95;2.10;;;14.70;99.90;;;;;;4130395;28;20181;-80
2023/07/21 00:51:12;;;;;;;4.88;2.75;;;14.70;99.90;;;;;;4131652;28;20042;-80
2023/07/21 00:53:14;;;;;;;3.95;2.20;;;14.80;99.90;;;;;;4132220;28;20161;-80
2023/07/21 00:55:15;;;;;;;4.00;2.47;;;14.70;99.90;;;;;;4132247;28;20050;-80
2023/07/21 00:57:16;;;;;;;4.63;2.33;;;14.60;99.90;;;;;;4131967;28;20057;-80
2023/07/21 00:59:17;;;;;;;5.38;2.33;;;14.60;99.90;;;;;;4132053;28;20042;-80
2023/07/21 01:01:17;;;;;;;8.82;3.22;;;14.50;99.90;;;;;;4130296;28;20058;-80
2023/07/21 01:03:19;;;;;;;6.63;2.50;;;14.60;99.90;;;;;;4132046;28;20042;-80
2023/07/21 01:05:20;;;;;;;5.22;2.50;;;14.60;99.90;;;;;;4130542;28;20069;-80
2023/07/21 01:07:21;;;;;;;4.68;2.42;;;14.70;99.90;;;;;;4130153;28;20058;-80
2023/07/21 01:09:22;;;;;;;5.00;2.30;;;14.60;99.90;;;;;;4132037;28;20137;-80
2023/07/21 01:11:24;;;;;;;4.90;2.47;;;14.50;99.90;;;;;;4113521;28;20054;-80
2023/07/21 01:13:26;;;;;;;5.75;2.35;;;14.50;99.90;;;;;;4130849;28;20089;-80
2023/07/21 01:15:28;;;;;;;8.38;2.60;;;14.60;99.90;;;;;;4131715;28;20061;-80
2023/07/21 01:17:29;;;;;;;4.35;2.17;;;14.50;99.90;;;;;;4131668;28;20125;-80
2023/07/21 01:19:31;;;;;;;6.88;2.03;;;14.50;99.90;;;;;;4130814;28;20054;-80
2023/07/21 01:21:40;;;;;;;4.85;2.42;;;14.50;99.90;;;;;;4131625;28;20046;-80
2023/07/21 01:23:50;;;;;;;6.60;2.38;;;14.50;99.90;;;;;;4146653;28;20067;-80
2023/07/21 01:25:52;;;;;;;5.57;2.50;;;14.50;99.90;;;;;;4131760;28;20046;-80
2023/07/21 01:27:54;;;;;;;8.00;2.70;;;14.50;99.90;;;;;;4131629;28;20042;-80
2023/07/21 01:29:56;;;;;;;4.90;2.75;;;14.50;99.90;;;;;;4130775;28;20038;-80
2023/07/21 01:31:59;;;;;;;4.22;2.40;;;14.40;99.90;;;;;;4130118;28;20046;-80
2023/07/21 01:34:01;;;;;;;6.38;2.50;;;14.40;99.90;;;;;;4130795;28;20391;-80
2023/07/21 01:36:03;;;;;;;6.95;2.55;;;14.40;99.90;;;;;;4130145;28;20136;-80
2023/07/21 01:38:05;;;;;;;5.85;2.58;;;14.30;99.90;;;;;;4131194;28;20046;-80
2023/07/21 01:40:12;;;;;;;6.80;2.13;;;14.30;99.90;;;;;;4130357;28;20085;-80
2023/07/21 01:42:13;;;;;;;4.55;2.42;;;14.30;99.90;;;;;;4131386;28;20510;-80
2023/07/21 01:44:15;;;;;;;4.57;2.25;;;14.20;99.90;;;;;;4131573;28;20058;-80
2023/07/21 01:46:17;;;;;;;4.78;2.10;;;14.10;99.90;;;;;;4130080;28;20482;-80
2023/07/21 01:48:17;;;;;;;3.67;1.92;;;14.20;99.90;;;;;;4129991;28;20108;-80
2023/07/21 01:50:19;;;;;;;4.63;2.15;;;14.10;99.90;;;;;;4131577;28;20129;-80
2023/07/21 01:52:19;;;;;;;5.68;2.47;;;14.20;99.90;;;;;;4131078;28;20057;-80
2023/07/21 01:54:27;;;;;;;5.43;2.83;;;14.10;99.90;;;;;;4131173;28;20430;-80
2023/07/21 01:56:35;;;;;;;5.67;2.70;;;14.30;99.90;;;;;;4129812;28;20062;-80
2023/07/21 01:58:40;;;;;;;9.98;3.60;;;14.10;99.90;;;;;;4131258;28;20069;-80
2023/07/21 02:00:42;;;;;;;3.85;2.25;;;14.20;99.90;;;;;;4131496;28;20050;-80
2023/07/21 02:02:47;;;;;;;3.58;2.35;;;14.00;99.90;;;;;;4131355;28;20047;-80
2023/07/21 02:04:51;;;;;;;6.38;2.42;;;14.00;99.90;;;;;;4131671;28;20057;-80
2023/07/21 02:06:52;;;;;;;4.68;2.42;;;13.80;99.90;;;;;;4131240;28;20125;-80
2023/07/21 02:08:53;;;;;;;4.32;2.20;;;14.00;99.90;;;;;;4131092;28;20097;-80
2023/07/21 02:10:53;;;;;;;6.35;2.33;;;13.90;99.90;;;;;;4130956;28;20526;-80
2023/07/21 02:12:54;;;;;;;3.70;2.35;;;13.90;99.90;;;;;;4131413;28;20042;-80
2023/07/21 02:14:55;;;;;;;7.60;2.67;;;13.80;99.90;;;;;;4131261;28;20050;-80
2023/07/21 02:16:55;;;;;;;5.10;2.33;;;13.80;99.90;;;;;;4130077;28;20530;-80
2023/07/21 02:18:56;;;;;;;5.50;2.38;;;13.80;99.90;;;;;;4131375;28;20177;-80
2023/07/21 02:21:02;;;;;;;3.95;2.03;;;13.80;99.90;;;;;;4131565;28;20054;-80
2023/07/21 02:23:03;;;;;;;4.80;2.25;;;14.50;99.90;;;;;;4130438;28;20516;-80
2023/07/21 02:25:05;;;;;;;3.88;1.98;;;13.70;99.90;;;;;;4130021;28;20097;-80
2023/07/21 02:27:07;;;;;;;4.25;2.42;;;13.80;99.90;;;;;;4131073;28;20050;-80
2023/07/21 02:29:10;;;;;;;6.07;2.22;;;13.80;99.90;;;;;;4131543;28;20046;-80
2023/07/21 02:31:11;;;;;;;3.67;1.80;;;13.70;99.90;;;;;;4131283;28;20050;-80
2023/07/21 02:33:11;;;;;;;4.68;1.90;;;13.70;99.90;;;;;;4129611;28;20059;-80
2023/07/21 02:35:14;;;;;;;7.25;2.42;;;13.50;99.90;;;;;;4133703;28;20046;-80
2023/07/21 02:37:16;;;;;;;5.45;2.60;;;13.80;99.90;;;;;;4134240;28;20046;-80
2023/07/21 02:39:18;;;;;;;5.03;2.10;;;14.60;99.90;;;;;;4134508;28;20162;-80
2023/07/21 02:41:19;;;;;;;4.85;2.25;;;13.50;99.90;;;;;;4134102;28;20058;-80
2023/07/21 02:43:20;;;;;;;3.30;2.08;;;13.60;99.90;;;;;;4134155;28;20050;-80
2023/07/21 02:45:20;;;;;;;3.83;2.00;;;13.60;99.90;;;;;;4134057;28;20045;-80
2023/07/21 02:47:21;;;;;;;5.88;2.28;;;13.80;99.90;;;;;;4133175;28;20057;-80
2023/07/21 02:49:21;;;;;;;5.63;1.88;;;13.50;99.90;;;;;;4134169;28;20394;-80
2023/07/21 02:51:22;;;;;;;4.10;2.15;;;13.50;99.90;;;;;;4133885;28;20088;-80
2023/07/21 02:53:23;;;;;;;4.38;2.17;;;13.50;99.90;;;;;;4134063;28;20073;-80
2023/07/21 02:55:24;;;;;;;4.82;2.38;;;13.40;99.90;;;;;;4133636;28;20093;-80
2023/07/21 02:57:24;;;;;;;8.13;2.35;;;13.70;99.90;;;;;;4133310;28;20038;-80
2023/07/21 02:59:26;;;;;;;6.35;2.25;;;13.50;99.90;;;;;;4133945;28;20050;-80
2023/07/21 03:01:28;;;;;;;4.38;2.63;;;13.60;99.90;;;;;;4133850;28;20050;-80
2023/07/21 03:03:32;;;;;;;4.22;2.20;;;13.50;99.90;;;;;;4133932;28;20132;-80
2023/07/21 03:05:33;;;;;;;5.55;2.33;;;13.50;99.90;;;;;;4134139;28;20062;-80
2023/07/21 03:07:34;;;;;;;4.60;2.25;;;13.50;99.90;;;;;;4133354;28;20050;-80
2023/07/21 03:09:35;;;;;;;7.25;2.97;;;13.40;99.90;;;;;;4133254;28;20406;-80
2023/07/21 03:11:36;;;;;;;3.47;2.20;;;13.50;99.90;;;;;;4133200;28;20046;-80
2023/07/21 03:13:38;;;;;;;6.00;2.53;;;13.40;99.90;;;;;;4133651;28;20076;-80
2023/07/21 03:15:38;;;;;;;4.93;2.40;;;13.40;99.90;;;;;;4133668;28;20085;-80
2023/07/21 03:17:39;;;;;;;5.45;2.28;;;13.40;99.90;;;;;;4133289;28;20046;-80
2023/07/21 03:19:40;;;;;;;4.35;2.53;;;13.70;99.90;;;;;;4132094;28;20046;-80
2023/07/21 03:21:42;;;;;;;7.82;2.65;;;13.50;99.90;;;;;;4133141;28;20053;-80
2023/07/21 03:23:44;;;;;;;6.55;2.10;;;13.30;99.90;;;;;;4133606;28;20053;-80
2023/07/21 03:25:47;;;;;;;4.78;2.88;;;13.40;99.90;;;;;;4132433;28;20054;-80
2023/07/21 03:27:48;;;;;;;5.82;2.40;;;13.30;99.90;;;;;;4133026;28;20065;-80
2023/07/21 03:29:51;;;;;;;8.13;3.20;;;13.30;99.90;;;;;;4133286;28;20042;-80
2023/07/21 03:31:52;;;;;;;4.88;2.30;;;13.20;99.90;;;;;;4132392;28;20053;-80
2023/07/21 03:33:53;;;;;;;4.78;2.17;;;13.20;99.90;;;;;;4132863;28;20128;-80
2023/07/21 03:36:02;;;;;;;4.60;2.45;;;13.60;99.90;;;;;;4133038;28;20043;-80
2023/07/21 03:38:03;;;;;;;3.35;2.20;;;13.30;99.90;;;;;;4133152;28;20039;-80
2023/07/21 03:40:06;;;;;;;5.75;2.50;;;13.50;99.90;;;;;;4132776;28;20042;-80
2023/07/21 03:42:07;;;;;;;5.20;2.50;;;13.30;99.90;;;;;;4133344;28;20046;-80
2023/07/21 03:44:09;;;;;;;6.63;2.90;;;13.30;99.90;;;;;;4133208;28;20058;-80
2023/07/21 03:46:10;;;;;;;5.18;2.25;;;13.20;99.90;;;;;;4133378;28;20043;-80
2023/07/21 03:48:12;;;;;;;6.63;2.60;;;13.20;99.90;;;;;;4132713;28;20049;-80
2023/07/21 03:50:13;;;;;;;6.43;2.42;;;13.20;99.90;;;;;;4132768;28;20042;-80
2023/07/21 03:52:14;;;;;;;4.20;2.40;;;13.20;99.90;;;;;;4131633;28;20572;-80
2023/07/21 03:54:14;;;;;;;4.50;2.58;;;13.20;99.90;;;;;;4133006;28;20043;-80
2023/07/21 03:56:16;;;;;;;7.57;3.60;;;13.20;99.90;;;;;;4132820;28;20058;-80
2023/07/21 03:58:16;;;;;;;5.85;2.47;;;13.20;99.90;;;;;;4132905;28;20478;-81
2023/07/21 04:00:18;;;;;;;5.22;2.60;;;13.50;99.90;;;;;;4131297;28;20057;-80
2023/07/21 04:02:19;;;;;;;4.75;2.22;;;13.20;99.90;;;;;;4131862;28;20080;-80
2023/07/21 04:04:19;;;;;;;5.63;2.33;;;13.20;99.90;;;;;;4133029;28;20129;-80
2023/07/21 04:06:23;;;;;;;3.72;1.92;;;13.30;99.90;;;;;;4131415;28;20056;-80
2023/07/21 04:08:23;;;;;;;4.68;2.30;;;13.30;99.90;;;;;;4131151;28;20061;-80
2023/07/21 04:10:25;;;;;;;5.65;2.10;;;13.30;99.90;;;;;;4132422;28;20042;-80
2023/07/21 04:12:26;;;;;;;6.70;2.88;;;13.20;99.90;;;;;;4132215;28;20042;-80
2023/07/21 04:14:26;;;;;;;3.20;1.98;;;13.30;99.90;;;;;;4132643;28;20056;-80
2023/07/21 04:16:27;;;;;;;6.20;2.72;;;13.20;99.90;;;;;;4132058;28;20047;-80
2023/07/21 04:18:28;;;;;;;5.57;2.00;;;13.20;99.90;;;;;;4131797;28;20058;-80
2023/07/21 04:20:34;;;;;;;4.90;2.58;;;13.20;99.90;;;;;;4132891;28;20046;-81
2023/07/21 04:22:35;;;;;;;4.72;2.65;;;12.70;99.90;;;;;;4132111;28;20054;-80
2023/07/21 04:24:36;;;;;;;6.45;2.10;;;13.30;99.90;;;;;;4132741;28;20050;-80
2023/07/21 04:26:37;;;;;;;5.22;2.22;;;13.30;99.90;;;;;;4132139;28;20038;-80
2023/07/21 04:28:37;;;;;;;4.20;2.28;;;13.30;99.90;;;;;;4131368;28;20141;-80
2023/07/21 04:30:38;;;;;;;6.32;1.92;;;13.50;99.90;;;;;;4132325;28;20053;-80
2023/07/21 04:32:39;;;;;;;5.70;2.10;;;13.20;99.90;;;;;;4131765;28;20048;-80
2023/07/21 04:34:40;;;;;;;5.72;2.50;;;13.40;99.90;;;;;;4132194;28;20069;-80
2023/07/21 04:36:40;;;;;;;6.32;2.78;;;13.40;99.90;;;;;;4131978;28;20099;-80
2023/07/21 04:38:41;;;;;;;5.97;2.28;;;13.40;99.90;;;;;;4132584;28;20125;-80
2023/07/21 04:40:44;;;;;;;4.57;2.22;;;13.50;99.90;;;;;;4131370;28;20046;-80
2023/07/21 04:42:45;;;;;;;8.38;3.00;;;13.60;99.90;;;;;;4130713;28;20049;-80
2023/07/21 04:44:48;;;;;;;7.00;2.88;;;13.80;99.90;;;;;;4132577;28;20487;-80
2023/07/21 04:46:49;;;;;;;5.70;1.98;;;13.60;99.90;;;;;;4130741;28;20085;-80
2023/07/21 04:48:49;;;;;;;6.78;2.33;;;13.60;99.90;;;;;;4132204;28;20042;-81
2023/07/21 04:50:53;;;;;;;4.75;2.15;;;14.00;99.90;;;;;;4131848;28;20138;-80
2023/07/21 04:52:53;;;;;;;3.85;2.38;;;13.60;99.90;;;;;;4130427;28;20514;-80
2023/07/21 04:54:54;;;;;;;5.82;2.10;;;13.70;99.90;;;;;;4131826;28;20044;-80
2023/07/21 04:56:55;;;;;;;5.10;2.50;;;13.70;99.90;;;;;;4131105;28;20042;-80
2023/07/21 04:58:55;;;;;;;3.00;1.70;;;13.70;99.90;;;;;;4131978;28;20046;-80
2023/07/21 05:00:56;;;;;;;4.03;2.20;;;13.80;99.90;;;;;;4131984;28;20117;-80
2023/07/21 05:02:57;;;;;;;6.90;2.08;;;13.80;99.90;;;;;;4131498;28;20095;-80
2023/07/21 05:04:57;;;;;;;4.97;2.65;;;13.90;99.90;;;;;;4131529;28;20073;-81
2023/07/21 05:06:58;;;;;;;7.75;2.33;;;13.90;99.90;;;;;;4130474;28;20092;-80
2023/07/21 05:08:59;;;;;;;4.30;2.47;;;14.00;99.90;;;;;;4146814;28;20049;-80
2023/07/21 05:10:59;;;;;;;6.18;2.22;;;14.00;99.90;;;;;;4132023;28;20050;-80
2023/07/21 05:13:00;;;;;;;4.15;2.15;;;14.10;99.90;;;;;;4130988;28;20053;-80
2023/07/21 05:15:01;;;;;;;4.10;1.65;;;14.10;99.90;;;;;;4131711;28;20049;-80
2023/07/21 05:17:01;;;;;;;4.75;2.00;;;14.50;99.90;;;;;;4131424;28;20042;-80
2023/07/21 05:19:02;;;;;;;3.65;2.08;;;14.30;99.90;;;;;;4131815;28;20042;-80
2023/07/21 05:21:03;;;;;;;4.18;1.85;;;14.30;99.90;;;;;;4131627;28;20072;-80
2023/07/21 05:23:03;;;;;;;5.68;2.35;;;14.40;99.90;;;;;;4130417;28;20054;-81
2023/07/21 05:25:05;;;;;;;3.88;1.85;;;14.40;99.90;;;;;;4131735;28;20073;-80
2023/07/21 05:27:07;;;;;;;3.55;1.88;;;14.40;99.90;;;;;;4131520;28;20486;-80
2023/07/21 05:29:08;;;;;;;4.38;1.77;;;14.50;99.90;;;;;;4131468;28;20054;-80
2023/07/21 05:31:11;;;;;;;5.30;1.95;;;14.50;99.90;;;;;;4131157;28;20189;-80
2023/07/21 05:33:11;;;;;;;2.78;1.75;;;14.50;99.90;;;;;;4131192;28;20073;-80
2023/07/21 05:35:13;;;;;;;6.32;1.95;;;14.60;99.90;;;;;;4131754;28;20039;-80
2023/07/21 05:37:14;;;;;;;5.07;2.13;;;14.60;99.90;;;;;;4131556;28;20461;-80
2023/07/21 05:39:15;;;;;;;3.70;1.88;;;14.70;99.90;;;;;;4130252;28;20053;-80
2023/07/21 05:41:17;;;;;;;6.05;2.35;;;14.70;99.90;;;;;;4131048;28;20478;-80
2023/07/21 05:43:17;;;;;;;4.15;2.40;;;14.80;99.90;;;;;;4131270;28;20487;-80
2023/07/21 05:45:18;;;;;;;5.82;2.42;;;14.80;99.90;;;;;;4131405;28;20121;-80
2023/07/21 05:47:19;;;;;;;4.53;1.90;;;14.90;99.90;;;;;;4131196;28;20042;-80
2023/07/21 05:49:20;;;;;;;8.38;2.15;;;15.10;99.90;;;;;;4131774;28;20548;-80
2023/07/21 05:51:20;;;;;;;7.65;2.88;;;14.90;99.90;;;;;;4131448;28;20081;-80
2023/07/21 05:53:21;;;;;;;6.45;1.85;;;14.90;99.90;;;;;;4130887;28;20050;-80
2023/07/21 05:55:21;;;;;;;5.40;2.03;;;15.00;99.90;;;;;;4131634;28;20042;-80
2023/07/21 05:57:22;;;;;;;3.92;2.13;;;15.10;99.90;;;;;;4131359;28;20046;-80
2023/07/21 05:59:23;;;;;;;5.53;2.28;;;15.10;99.90;;;;;;4131300;28;20038;-80
2023/07/21 06:01:24;;;;;;;5.60;2.40;;;15.20;99.90;;;;;;4131285;28;20050;-80
2023/07/21 06:03:25;;;;;;;8.27;1.90;;;15.20;99.90;;;;;;4130773;28;20046;-80
2023/07/21 06:05:25;;;;;;;6.18;2.20;;;15.30;99.90;;;;;;4131259;28;20096;-80
2023/07/21 06:07:28;;;;;;;9.00;2.00;;;15.40;99.90;;;;;;4131379;28;20042;-80
2023/07/21 06:09:28;;;;;;;3.60;1.90;;;15.40;99.90;;;;;;4134645;28;20128;-80
2023/07/21 06:11:29;;;;;;;4.45;2.30;;;15.60;99.90;;;;;;4134733;28;20061;-80
2023/07/21 06:13:30;;;;;;;4.50;1.90;;;15.60;99.90;;;;;;4134140;28;20043;-80
2023/07/21 06:15:30;;;;;;;4.60;1.90;;;16.00;99.90;;;;;;4134406;28;20046;-80
2023/07/21 06:17:31;;;;;;;5.03;1.75;;;15.70;99.90;;;;;;4134208;28;20475;-80
2023/07/21 06:19:34;;;;;;;3.80;1.55;;;15.70;99.90;;;;;;4133022;28;20042;-80
2023/07/21 06:21:35;;;;;;;6.47;1.52;;;15.90;99.90;;;;;;4134149;28;20505;-80
2023/07/21 06:23:36;;;;;;;3.67;1.55;;;15.90;99.90;;;;;;4134254;28;20042;-80
2023/07/21 06:25:36;;;;;;;3.05;1.35;;;16.00;99.90;;;;;;4134671;28;20035;-80
2023/07/21 06:27:37;;;;;;;3.70;1.60;;;16.20;99.90;;;;;;4134265;28;20046;-80
2023/07/21 06:29:38;;;;;;;3.03;1.15;;;15.70;99.90;;;;;;4134573;28;20046;-80
2023/07/21 06:31:39;;;;;;;2.00;1.02;;;16.30;99.90;;;;;;4148704;28;20120;-81
2023/07/21 06:33:39;;;;;;;3.08;1.20;;;16.40;99.90;;;;;;4134559;28;20100;-80
2023/07/21 06:35:40;;;;;;;3.40;1.42;;;16.50;99.90;;;;;;4134223;28;20085;-80
2023/07/21 06:37:40;;;;;;;2.90;0.90;;;16.60;99.90;;;;;;4134184;28;20081;-80
2023/07/21 06:39:41;;;;;;;2.00;1.10;;;16.60;99.90;;;;;;4133830;28;20495;-80
2023/07/21 06:41:44;;;;;;;1.23;0.80;;;16.70;99.90;;;;;;4133068;28;20481;-81
2023/07/21 06:43:45;;;;;;;2.25;1.10;;;16.80;99.90;;;;;;4134482;28;20100;-80
2023/07/21 06:45:45;;;;;;;2.15;1.30;;;16.90;99.90;;;;;;4134016;28;20121;-80
2023/07/21 06:47:46;;;;;;;3.72;1.42;;;16.90;99.90;;;;;;4133631;28;20085;-80
2023/07/21 06:49:47;;;;;;;3.25;1.80;;;17.00;99.90;;;;;;4134349;28;20513;-80
2023/07/21 06:51:47;;;;;;;1.83;1.17;;;17.10;99.90;;;;;;4133176;28;20057;-80
2023/07/21 06:53:49;;;;;;;1.33;0.70;;;17.30;99.90;;;;;;4133761;28;20092;-80
2023/07/21 06:55:51;;;;;;;1.40;0.70;;;17.40;99.90;;;;;;4134118;28;20046;-80
2023/07/21 06:57:52;;;;;;;1.35;0.80;;;17.50;99.90;;;;;;4133615;28;20048;-80
2023/07/21 06:59:52;;;;;;;2.75;1.40;;;17.50;99.90;;;;;;4134167;28;20078;-80
2023/07/21 07:01:53;;;;;;;1.92;1.02;;;17.40;99.90;;;;;;4132411;28;20081;-80
2023/07/21 07:03:55;;;;;;;2.47;0.80;;;17.40;99.90;;;;;;4133663;28;20402;-80
2023/07/21 07:05:57;;;;;;;1.95;1.00;;;17.40;99.90;;;;;;4132366;28;20054;-80
2023/07/21 07:07:57;;;;;;;0.95;0.70;;;17.50;99.90;;;;;;4132089;28;20046;-80
2023/07/21 07:09:58;;;;;;;1.00;0.80;;;17.50;99.90;;;;;;4133471;28;20125;-80
2023/07/21 07:12:03;;;;;;;1.80;0.68;;;17.60;99.90;;;;;;4133199;28;20450;-80
2023/07/21 07:14:03;;;;;;;1.08;0.70;;;17.80;99.90;;;;;;4133668;28;20081;-80
2023/07/21 07:16:04;;;;;;;1.42;0.75;;;17.70;99.90;;;;;;4133141;28;20042;-80
2023/07/21 07:18:05;;;;;;;3.25;1.25;;;17.70;99.90;;;;;;4148203;28;20053;-80
2023/07/21 07:20:09;;;;;;;1.50;0.85;;;;;;;;;;4133120;28;20043;-80
2023/07/21 07:22:12;;;;;;;1.77;0.90;;;17.70;99.90;;;;;;4133415;28;20462;-80
2023/07/21 07:24:13;;;;;;;2.95;1.50;;;17.90;99.90;;;;;;4132031;28;20576;-80
2023/07/21 07:26:13;;;;;;;1.52;0.80;;;18.00;99.90;;;;;;4133178;28;20046;-80
2023/07/21 07:28:15;;;;;;;1.83;0.82;;;18.00;99.90;;;;;;4132817;28;20108;-80
2023/07/21 07:30:16;;;;;;;2.13;0.73;;;18.10;99.90;;;;;;4133342;28;20086;-80
2023/07/21 07:32:17;;;;;;;1.63;0.88;;;18.10;99.90;;;;;;4133101;28;20078;-80
2023/07/21 07:34:18;;;;;;;0.98;0.70;;;18.20;99.90;;;;;;4147879;28;20137;-80
2023/07/21 07:36:18;;;;;;;5.35;1.00;;;18.30;99.90;;;;;;4133293;28;20111;-80
2023/07/21 07:38:23;;;;;;;1.33;1.02;;;18.40;99.90;;;;;;4131372;28;20058;-80
2023/07/21 07:40:24;;;;;;;1.48;1.00;;;18.40;99.90;;;;;;4131797;28;20050;-80
2023/07/21 07:42:25;;;;;;;2.08;1.15;;;18.60;99.90;;;;;;4133057;28;20053;-80
2023/07/21 07:44:25;;;;;;;2.45;1.10;;;18.70;99.90;;;;;;4133151;28;20046;-80
2023/07/21 07:46:26;;;;;;;1.67;0.95;;;18.70;99.90;;;;;;4133211;28;20411;-80
2023/07/21 07:48:27;;;;;;;1.83;0.82;;;18.70;99.90;;;;;;4133165;28;20050;-80
2023/07/21 07:50:27;;;;;;;2.03;1.17;;;18.80;99.90;;;;;;4132953;28;20050;-80
2023/07/21 07:52:28;;;;;;;4.07;1.50;;;18.80;99.90;;;;;;4131452;28;20129;-80
2023/07/21 07:54:29;;;;;;;3.72;0.93;;;18.90;99.90;;;;;;4133077;28;20125;-80
2023/07/21 07:56:30;;;;;;;0.90;0.70;;;18.90;99.90;;;;;;4132724;28;20042;-80
2023/07/21 07:58:31;;;;;;;1.92;0.70;;;18.80;99.90;;;;;;4133055;28;20043;-80
2023/07/21 08:00:35;;;;;;;2.20;0.82;;;18.80;99.90;;;;;;4131849;28;20062;-80
2023/07/21 08:02:35;;;;;;;6.18;1.08;;;18.90;99.90;;;;;;4132474;28;20380;-80
2023/07/21 08:04:36;;;;;;;6.28;1.48;;;18.90;99.90;;;;;;4133063;28;20116;-80
2023/07/21 08:06:36;;;;;;;2.17;0.88;;;18.90;99.90;;;;;;4133002;28;20061;-80
2023/07/21 08:08:38;;;;;;;2.67;0.90;;;19.00;99.90;;;;;;4133096;28;20046;-80
2023/07/21 08:10:40;;;;;;;0.63;0.60;;;19.00;99.90;;;;;;4134007;28;20220;-80
2023/07/21 08:12:41;;;;;;;1.60;1.02;;;19.00;99.90;;;;;;4131774;28;20093;-80
2023/07/21 08:14:41;;;;;;;4.30;1.02;;;19.00;99.90;;;;;;4133300;28;20050;-80
2023/07/21 08:16:42;;;;;;;2.40;1.15;;;19.00;99.90;;;;;;4134343;28;20038;-80
2023/07/21 08:18:43;;;;;;;1.38;0.93;;;19.10;99.90;;;;;;4133482;28;20039;-80
2023/07/21 08:20:43;;;;;;;5.15;1.13;;;19.30;99.90;;;;;;4133017;28;20057;-80
2023/07/21 08:22:48;;;;;;;1.40;1.00;;;19.50;99.90;;;;;;4133005;28;20089;-80
2023/07/21 08:24:48;;;;;;;2.13;1.40;;;19.60;99.90;;;;;;4133217;28;20482;-80
2023/07/21 08:26:49;;;;;;;2.65;1.10;;;19.70;99.90;;;;;;4130785;28;20182;-80
2023/07/21 08:28:52;;;;;;;1.52;1.13;;;19.80;99.90;;;;;;4131207;28;20042;-80
2023/07/21 08:30:53;;;;;;;0.95;0.93;;;19.90;99.90;;;;;;4131737;28;20042;-80
2023/07/21 08:32:56;;;;;;;4.85;1.20;;;20.00;99.90;;;;;;4131771;28;20050;-81
2023/07/21 08:34:57;;;;;;;1.23;0.95;;;20.20;99.90;;;;;;4132628;28;20042;-80
2023/07/21 08:36:57;;;;;;;1.92;0.70;;;20.40;99.90;;;;;;4131828;28;20046;-80
2023/07/21 08:38:58;;;;;;;2.40;1.20;;;20.80;99.90;;;;;;4132491;28;20046;-80
2023/07/21 08:41:12;;;;;;;3.83;1.25;;;21.20;99.90;;;;;;4130429;28;20073;-80
2023/07/21 08:43:14;;;;;;;3.30;0.80;;;;;;;;;;4131137;28;20051;-80
2023/07/21 08:45:15;;;;;;;1.75;0.68;;;;;;;;;;4130996;28;20050;-80
2023/07/21 08:47:16;;;;;;;2.65;0.95;;;;;;;;;;4132084;28;20070;-80
2023/07/21 08:49:18;;;;;;;3.47;1.05;;;;;;;;;;4132506;28;20053;-80
2023/07/21 08:51:19;;;;;;;3.92;1.00;;;;;;;;;;4132477;28;20498;-80
2023/07/21 08:53:27;;;;;;;0.75;0.50;;;;;;;;;;4244460;27;20422;-79
2023/07/21 08:55:28;;;;;;;0.90;0.47;;;;;;;;;;4227005;28;20048;-79
2023/07/21 08:57:30;;;;;;;1.00;0.73;;;;;;;;;;4227353;28;20043;-80
2023/07/21 08:59:32;;;;;;;1.10;0.80;;;;;;;;;;4226771;28;20056;-80
2023/07/21 09:01:33;;;;;;;1.17;0.68;;;;;;;;;;4210133;28;20037;-80
2023/07/21 09:03:35;;;;;;;1.33;0.82;;;;;;;;;;4226613;28;20050;-80
2023/07/21 09:05:36;;;;;;;1.20;0.60;;;;;;;;;;4210331;28;20084;-79
2023/07/21 09:07:40;;;;;;;2.25;0.80;;;;;;;;;;4209948;28;20476;-80
2023/07/21 09:09:49;;;;;;;3.53;1.10;;;;;;;;;;4227059;28;20044;-80
2023/07/21 09:11:50;;;;;;;2.90;0.98;;;;;;;;;;4226234;28;20044;-79
2023/07/21 09:13:53;;;;;;;6.50;0.85;;;;;;;;;;4226765;28;20048;-80
2023/07/21 09:15:55;;;;;;;3.05;1.10;;;;;;;;;;4226736;28;20131;-80
2023/07/21 09:17:56;;;;;;;2.47;1.33;;;;;;;;;;4209150;28;20044;-79
2023/07/21 09:19:57;;;;;;;2.03;1.00;;;;;;;;;;4227145;28;20087;-80
2023/07/21 09:21:58;;;;;;;0.98;0.80;;;21.40;99.90;;;;;;4260734;27;20087;-79
2023/07/21 09:24:02;;;;;;;2.20;1.13;;;22.80;98.70;;;;;;4244357;28;20048;-80
2023/07/21 09:26:04;;;;;;;1.90;0.90;;;;;;;;;;4226324;28;20051;-79
2023/07/21 09:28:05;;;;;;;3.28;0.90;;;;;;;;;;4226282;28;20486;-80
2023/07/21 09:30:06;;;;;;;4.05;0.80;;;;;;;;;;4260312;27;20514;-80
2023/07/21 09:32:14;;;;;;;1.65;0.90;;;;;;;;;;4238028;28;20043;-79
2023/07/21 09:34:15;;;;;;;2.72;1.17;;;;;;;;;;4243501;28;20077;-79
2023/07/21 09:36:17;;;;;;;1.38;0.93;;;;;;;;;;4243731;28;20143;-80
2023/07/21 09:38:22;;;;;;;4.00;0.90;;;;;;;;;;4242669;28;20051;-80
2023/07/21 09:40:29;;;;;;;1.55;1.17;;;;;;;;;;4243377;28;20054;-80
2023/07/21 09:42:30;;;;;;;2.78;0.90;;;;;;;;;;4243259;28;20073;-80
2023/07/21 09:44:31;;;;;;;1.77;1.00;;;;;;;;;;4243184;28;20384;-80
2023/07/21 09:46:33;;;;;;;1.10;0.80;;;;;;;;;;4250754;28;20043;-79
2023/07/21 09:48:35;;;;;;;1.90;0.98;;;;;;;;;;4254128;28;20078;-79
2023/07/21 09:50:36;;;;;;;2.90;1.20;;;;;;;;;;4253223;28;20051;-80
2023/07/21 09:52:39;;;;;;;1.00;0.63;;;;;;;;;;4243604;28;20060;-80
2023/07/21 09:54:44;;;;;;;1.00;0.80;;;22.70;98.40;;;;;;4226672;28;20056;-79
2023/07/21 09:56:49;;;;;;;2.65;1.42;;;22.20;97.20;;;;;;4225812;28;20055;-80
2023/07/21 09:59:02;;;;;;;1.58;0.93;;;22.30;96.40;;;;;;4226547;28;20384;-79
2023/07/21 10:01:04;;;;;;;1.23;1.13;;;22.50;96.70;;;;;;4209718;28;20048;-80
2023/07/21 10:03:07;;;;;;;1.73;1.13;;;;;;;;;;4242402;28;20035;-79
2023/07/21 10:05:09;;;;;;;1.50;0.90;;;22.80;97.30;;;;;;4214423;28;20043;-79
2023/07/21 10:07:14;;;;;;;4.85;1.40;;;22.90;97.20;;;;;;4232031;28;20048;-80
2023/07/21 10:09:16;;;;;;;2.08;1.42;;;22.80;97.20;;;;;;4215145;28;20423;-80
2023/07/21 10:11:17;;;;;;;3.90;1.20;;;22.70;97.00;;;;;;4215044;28;20056;-79
2023/07/21 10:13:18;;;;;;;3.50;1.35;;;22.40;97.10;;;;;;4240794;28;20403;-79
2023/07/21 10:15:30;;;;;;;1.95;1.13;;;22.20;97.30;;;;;;4231807;28;20047;-79
2023/07/21 10:18:02;;;;;;;1.25;0.82;;;22.30;97.70;;;;;;4231721;28;20058;-79
2023/07/21 10:20:07;;;;;;;1.02;0.80;;;22.30;97.50;;;;;;4214339;28;20123;-79
2023/07/21 10:22:12;;;;;;;1.80;0.88;;;22.30;96.90;;;;;;4231245;28;20415;-80
2023/07/21 10:24:23;;;;;;;2.25;1.00;;;22.10;96.00;;;;;;4231422;28;20114;-79
2023/07/21 10:26:23;;;;;;;0.80;0.70;;;22.00;95.50;;;;;;4231456;28;20047;-80
2023/07/21 10:28:25;;;;;;;2.08;1.08;;;21.90;96.20;;;;;;4231341;28;20039;-79
2023/07/21 10:30:28;;;;;;;2.58;0.80;;;22.00;95.80;;;;;;4231404;28;20081;-79
2023/07/21 10:32:41;;;;;;;3.92;0.63;;;21.90;95.50;;;;;;4230921;28;20538;-80
2023/07/21 10:34:43;;;;;;;0.75;0.50;;;21.80;94.40;;;;;;4231295;28;20052;-79
2023/07/21 10:36:52;;;;;;;2.88;0.80;;;21.80;95.50;;;;;;4230426;28;20048;-80
2023/07/21 10:39:00;;;;;;;1.45;0.70;;;21.70;95.30;;;;;;4231191;28;20087;-79
2023/07/21 10:41:00;;;;;;;1.85;0.80;;;21.80;95.20;;;;;;4231343;28;20086;-79
2023/07/21 10:43:01;;;;;;;0.95;0.82;;;21.90;95.40;;;;;;4230825;28;20039;-80